sensor_id;sensor_type;location;lat;lon;timestamp;temperature;humidity
33881;DHT22;20172;47.530;10.256;2023-08-21T00:00:05;21.70;99.90
33881;DHT22;20172;47.530;10.256;2023-08-21T00:02:30;21.70;99.90
33881;DHT22;20172;47.530;10.256;2023-08-21T00:04:56;21.70;99.90
33881;DHT22;20172;47.530;10.256;2023-08-21T00:07:22;21.70;99.90
33881;DHT22;20172;47.530;10.256;2023-08-21T00:09:48;21.60;99.90
33881;DHT22;20172;47.530;10.256;2023-08-21T00:12:13;21.50;99.90
33881;DHT22;20172;47.530;10.256;2023-08-21T00:14:39;21.50;99.90
33881;DHT22;20172;47.530;10.256;2023-08-21T00:17:04;21.50;99.90
33881;DHT22;20172;47.530;10.256;2023-08-21T00:19:30;21.50;99.90
33881;DHT22;20172;47.530;10.256;2023-08-21T00:21:55;21.60;99.90
33881;DHT22;20172;47.530;10.256;2023-08-21T00:24:21;21.60;99.90
33881;DHT22;20172;47.530;10.256;2023-08-21T00:26:46;21.60;99.90
33881;DHT22;20172;47.530;10.256;2023-08-21T00:29:12;21.50;99.90
33881;DHT22;20172;47.530;10.256;2023-08-21T00:31:38;21.40;99.90
33881;DHT22;20172;47.530;10.256;2023-08-21T00:34:03;21.20;99.90
33881;DHT22;20172;47.530;10.256;2023-08-21T00:36:29;21.10;99.90
33881;DHT22;20172;47.530;10.256;2023-08-21T00:38:54;21.00;99.90
33881;DHT22;20172;47.530;10.256;2023-08-21T00:41:20;20.90;99.90
33881;DHT22;20172;47.530;10.256;2023-08-21T00:43:45;21.00;99.90
33881;DHT22;20172;47.530;10.256;2023-08-21T00:46:11;21.00;99.90
33881;DHT22;20172;47.530;10.256;2023-08-21T00:48:37;21.10;99.90
33881;DHT22;20172;47.530;10.256;2023-08-21T00:51:03;21.10;99.90
33881;DHT22;20172;47.530;10.256;2023-08-21T00:53:29;21.00;99.90
33881;DHT22;20172;47.530;10.256;2023-08-21T00:55:54;21.10;99.90
33881;DHT22;20172;47.530;10.256;2023-08-21T00:58:20;21.10;99.90
33881;DHT22;20172;47.530;10.256;2023-08-21T01:00:46;21.00;99.90
33881;DHT22;20172;47.530;10.256;2023-08-21T01:03:12;21.00;99.90
33881;DHT22;20172;47.530;10.256;2023-08-21T01:05:38;21.00;99.90
33881;DHT22;20172;47.530;10.256;2023-08-21T01:08:05;20.90;99.90
33881;DHT22;20172;47.530;10.256;2023-08-21T01:13:01;20.80;99.90
33881;DHT22;20172;47.530;10.256;2023-08-21T01:15:29;20.70;99.90
33881;DHT22;20172;47.530;10.256;2023-08-21T01:17:55;20.60;99.90
33881;DHT22;20172;47.530;10.256;2023-08-21T01:20:21;20.60;99.90
33881;DHT22;20172;47.530;10.256;2023-08-21T01:22:46;20.60;99.90
33881;DHT22;20172;47.530;10.256;2023-08-21T01:25:12;20.50;99.90
33881;DHT22;20172;47.530;10.256;2023-08-21T01:27:48;20.60;99.90
33881;DHT22;20172;47.530;10.256;2023-08-21T01:30:13;20.70;99.90
33881;DHT22;20172;47.530;10.256;2023-08-21T01:35:05;20.70;99.90
33881;DHT22;20172;47.530;10.256;2023-08-21T01:37:31;20.60;99.90
33881;DHT22;20172;47.530;10.256;2023-08-21T01:39:59;20.60;99.90
33881;DHT22;20172;47.530;10.256;2023-08-21T01:42:25;20.50;99.90
33881;DHT22;20172;47.530;10.256;2023-08-21T01:44:51;20.50;99.90
33881;DHT22;20172;47.530;10.256;2023-08-21T01:47:16;20.50;99.90
33881;DHT22;20172;47.530;10.256;2023-08-21T01:49:42;20.40;99.90
33881;DHT22;20172;47.530;10.256;2023-08-21T01:52:07;20.30;99.90
33881;DHT22;20172;47.530;10.256;2023-08-21T01:54:33;20.20;99.90
33881;DHT22;20172;47.530;10.256;2023-08-21T01:56:58;20.10;99.90
33881;DHT22;20172;47.530;10.256;2023-08-21T01:59:25;20.10;99.90
33881;DHT22;20172;47.530;10.256;2023-08-21T02:01:51;20.10;99.90
33881;DHT22;20172;47.530;10.256;2023-08-21T02:04:17;20.00;99.90
33881;DHT22;20172;47.530;10.256;2023-08-21T02:06:43;20.00;99.90
33881;DHT22;20172;47.530;10.256;2023-08-21T02:09:09;20.00;99.90
33881;DHT22;20172;47.530;10.256;2023-08-21T02:11:35;20.00;99.90
33881;DHT22;20172;47.530;10.256;2023-08-21T02:14:00;20.10;99.90
33881;DHT22;20172;47.530;10.256;2023-08-21T02:16:26;20.10;99.90
33881;DHT22;20172;47.530;10.256;2023-08-21T02:18:51;20.20;99.90
33881;DHT22;20172;47.530;10.256;2023-08-21T02:21:17;20.40;99.90
33881;DHT22;20172;47.530;10.256;2023-08-21T02:23:43;20.30;99.90
33881;DHT22;20172;47.530;10.256;2023-08-21T02:26:08;20.30;99.90
33881;DHT22;20172;47.530;10.256;2023-08-21T02:28:34;20.20;99.90
33881;DHT22;20172;47.530;10.256;2023-08-21T02:30:59;20.30;99.90
33881;DHT22;20172;47.530;10.256;2023-08-21T02:33:25;20.20;99.90
33881;DHT22;20172;47.530;10.256;2023-08-21T02:35:50;20.20;99.90
33881;DHT22;20172;47.530;10.256;2023-08-21T02:38:16;20.20;99.90
33881;DHT22;20172;47.530;10.256;2023-08-21T02:40:42;20.00;99.90
33881;DHT22;20172;47.530;10.256;2023-08-21T02:43:07;20.00;99.90
33881;DHT22;20172;47.530;10.256;2023-08-21T02:45:33;19.90;99.90
33881;DHT22;20172;47.530;10.256;2023-08-21T02:47:58;19.80;99.90
33881;DHT22;20172;47.530;10.256;2023-08-21T02:50:24;19.80;99.90
33881;DHT22;20172;47.530;10.256;2023-08-21T02:52:49;19.70;99.90
33881;DHT22;20172;47.530;10.256;2023-08-21T02:55:15;19.70;99.90
33881;DHT22;20172;47.530;10.256;2023-08-21T02:57:41;19.70;99.90
33881;DHT22;20172;47.530;10.256;2023-08-21T03:00:06;19.80;99.90
33881;DHT22;20172;47.530;10.256;2023-08-21T03:02:38;19.80;99.90
33881;DHT22;20172;47.530;10.256;2023-08-21T03:05:08;19.70;99.90
33881;DHT22;20172;47.530;10.256;2023-08-21T03:07:34;19.60;99.90
33881;DHT22;20172;47.530;10.256;2023-08-21T03:10:00;19.60;99.90
33881;DHT22;20172;47.530;10.256;2023-08-21T03:12:27;19.50;99.90
33881;DHT22;20172;47.530;10.256;2023-08-21T03:14:52;19.60;99.90
33881;DHT22;20172;47.530;10.256;2023-08-21T03:17:18;19.60;99.90
33881;DHT22;20172;47.530;10.256;2023-08-21T03:19:43;19.70;99.90
33881;DHT22;20172;47.530;10.256;2023-08-21T03:22:09;19.80;99.90
33881;DHT22;20172;47.530;10.256;2023-08-21T03:24:36;19.80;99.90
33881;DHT22;20172;47.530;10.256;2023-08-21T03:27:02;19.90;99.90
33881;DHT22;20172;47.530;10.256;2023-08-21T03:29:27;19.90;99.90
33881;DHT22;20172;47.530;10.256;2023-08-21T03:31:53;19.80;99.90
33881;DHT22;20172;47.530;10.256;2023-08-21T03:34:22;19.70;99.90
33881;DHT22;20172;47.530;10.256;2023-08-21T03:36:47;19.60;99.90
33881;DHT22;20172;47.530;10.256;2023-08-21T03:39:13;19.50;99.90
33881;DHT22;20172;47.530;10.256;2023-08-21T03:41:38;19.40;99.90
33881;DHT22;20172;47.530;10.256;2023-08-21T03:44:04;19.30;99.90
33881;DHT22;20172;47.530;10.256;2023-08-21T03:46:29;19.30;99.90
33881;DHT22;20172;47.530;10.256;2023-08-21T03:48:55;19.20;99.90
33881;DHT22;20172;47.530;10.256;2023-08-21T03:51:20;19.10;99.90
33881;DHT22;20172;47.530;10.256;2023-08-21T03:53:46;19.10;99.90
33881;DHT22;20172;47.530;10.256;2023-08-21T03:56:11;19.10;99.90
33881;DHT22;20172;47.530;10.256;2023-08-21T03:58:37;19.00;99.90
33881;DHT22;20172;47.530;10.256;2023-08-21T04:01:02;19.00;99.90
33881;DHT22;20172;47.530;10.256;2023-08-21T04:03:28;19.00;99.90
33881;DHT22;20172;47.530;10.256;2023-08-21T04:05:54;19.00;99.90
33881;DHT22;20172;47.530;10.256;2023-08-21T04:08:21;19.00;99.90
33881;DHT22;20172;47.530;10.256;2023-08-21T04:10:47;19.00;99.90
33881;DHT22;20172;47.530;10.256;2023-08-21T04:13:12;18.90;99.90
33881;DHT22;20172;47.530;10.256;2023-08-21T04:15:38;18.90;99.90
33881;DHT22;20172;47.530;10.256;2023-08-21T04:18:04;18.90;99.90
33881;DHT22;20172;47.530;10.256;2023-08-21T04:20:30;18.80;99.90
33881;DHT22;20172;47.530;10.256;2023-08-21T04:22:56;18.80;99.90
33881;DHT22;20172;47.530;10.256;2023-08-21T04:25:21;18.80;99.90
33881;DHT22;20172;47.530;10.256;2023-08-21T04:27:47;18.80;99.90
33881;DHT22;20172;47.530;10.256;2023-08-21T04:30:12;18.80;99.90
33881;DHT22;20172;47.530;10.256;2023-08-21T04:32:38;18.80;99.90
33881;DHT22;20172;47.530;10.256;2023-08-21T04:35:03;18.80;99.90
33881;DHT22;20172;47.530;10.256;2023-08-21T04:37:30;18.80;99.90
33881;DHT22;20172;47.530;10.256;2023-08-21T04:39:56;18.80;99.90
33881;DHT22;20172;47.530;10.256;2023-08-21T04:42:21;18.80;99.90
33881;DHT22;20172;47.530;10.256;2023-08-21T04:44:47;18.80;99.90
33881;DHT22;20172;47.530;10.256;2023-08-21T04:47:22;18.90;99.90
33881;DHT22;20172;47.530;10.256;2023-08-21T04:49:49;18.90;99.90
33881;DHT22;20172;47.530;10.256;2023-08-21T04:52:15;18.90;99.90
33881;DHT22;20172;47.530;10.256;2023-08-21T04:54:40;18.90;99.90
33881;DHT22;20172;47.530;10.256;2023-08-21T04:57:07;18.90;99.90
33881;DHT22;20172;47.530;10.256;2023-08-21T04:59:33;18.90;99.90
33881;DHT22;20172;47.530;10.256;2023-08-21T05:01:58;19.00;99.90
33881;DHT22;20172;47.530;10.256;2023-08-21T05:04:24;19.10;99.90
33881;DHT22;20172;47.530;10.256;2023-08-21T05:06:49;19.10;99.90
33881;DHT22;20172;47.530;10.256;2023-08-21T05:09:15;19.10;99.90
33881;DHT22;20172;47.530;10.256;2023-08-21T05:11:40;19.20;99.90
33881;DHT22;20172;47.530;10.256;2023-08-21T05:14:06;19.20;99.90
33881;DHT22;20172;47.530;10.256;2023-08-21T05:16:31;19.20;99.90
33881;DHT22;20172;47.530;10.256;2023-08-21T05:18:57;19.30;99.90
33881;DHT22;20172;47.530;10.256;2023-08-21T05:21:22;19.40;99.90
33881;DHT22;20172;47.530;10.256;2023-08-21T05:23:48;19.40;99.90
33881;DHT22;20172;47.530;10.256;2023-08-21T05:26:13;19.40;99.90
33881;DHT22;20172;47.530;10.256;2023-08-21T05:28:39;19.50;99.90
33881;DHT22;20172;47.530;10.256;2023-08-21T05:31:04;19.60;99.90
33881;DHT22;20172;47.530;10.256;2023-08-21T05:33:30;19.70;99.90
33881;DHT22;20172;47.530;10.256;2023-08-21T05:35:56;19.70;99.90
33881;DHT22;20172;47.530;10.256;2023-08-21T05:38:21;19.90;99.90
33881;DHT22;20172;47.530;10.256;2023-08-21T05:40:47;20.00;99.90
33881;DHT22;20172;47.530;10.256;2023-08-21T05:43:13;20.10;99.90
33881;DHT22;20172;47.530;10.256;2023-08-21T05:45:38;20.20;99.90
33881;DHT22;20172;47.530;10.256;2023-08-21T05:48:04;20.30;99.90
33881;DHT22;20172;47.530;10.256;2023-08-21T05:50:29;20.40;99.90
33881;DHT22;20172;47.530;10.256;2023-08-21T05:52:55;20.40;99.90
33881;DHT22;20172;47.530;10.256;2023-08-21T05:55:23;20.50;99.90
33881;DHT22;20172;47.530;10.256;2023-08-21T05:57:48;20.50;99.90
33881;DHT22;20172;47.530;10.256;2023-08-21T06:00:14;20.60;99.90
33881;DHT22;20172;47.530;10.256;2023-08-21T06:02:40;20.70;99.90
33881;DHT22;20172;47.530;10.256;2023-08-21T06:05:07;20.80;99.90
33881;DHT22;20172;47.530;10.256;2023-08-21T06:07:33;20.90;99.90
33881;DHT22;20172;47.530;10.256;2023-08-21T06:09:58;21.10;99.90
33881;DHT22;20172;47.530;10.256;2023-08-21T06:12:24;21.30;99.90
33881;DHT22;20172;47.530;10.256;2023-08-21T06:14:50;21.40;99.90
33881;DHT22;20172;47.530;10.256;2023-08-21T06:17:15;21.40;99.90
33881;DHT22;20172;47.530;10.256;2023-08-21T06:19:41;21.40;99.90
33881;DHT22;20172;47.530;10.256;2023-08-21T06:22:07;21.50;99.90
33881;DHT22;20172;47.530;10.256;2023-08-21T06:24:33;21.60;99.90
33881;DHT22;20172;47.530;10.256;2023-08-21T06:26:58;21.70;99.90
33881;DHT22;20172;47.530;10.256;2023-08-21T06:29:24;21.80;99.90
33881;DHT22;20172;47.530;10.256;2023-08-21T06:31:49;21.90;99.90
33881;DHT22;20172;47.530;10.256;2023-08-21T06:34:15;22.00;99.90
33881;DHT22;20172;47.530;10.256;2023-08-21T06:36:41;22.10;99.90
33881;DHT22;20172;47.530;10.256;2023-08-21T06:39:06;22.20;99.90
33881;DHT22;20172;47.530;10.256;2023-08-21T06:41:31;22.30;99.90
33881;DHT22;20172;47.530;10.256;2023-08-21T06:43:57;22.50;99.90
33881;DHT22;20172;47.530;10.256;2023-08-21T06:46:23;22.60;99.90
33881;DHT22;20172;47.530;10.256;2023-08-21T06:48:48;22.70;99.90
33881;DHT22;20172;47.530;10.256;2023-08-21T06:51:15;22.80;99.90
33881;DHT22;20172;47.530;10.256;2023-08-21T06:53:41;22.90;99.90
33881;DHT22;20172;47.530;10.256;2023-08-21T06:56:06;23.20;99.90
33881;DHT22;20172;47.530;10.256;2023-08-21T06:58:32;23.30;99.90
33881;DHT22;20172;47.530;10.256;2023-08-21T07:00:58;23.50;99.90
33881;DHT22;20172;47.530;10.256;2023-08-21T07:03:23;23.60;99.90
33881;DHT22;20172;47.530;10.256;2023-08-21T07:05:56;23.70;99.90
33881;DHT22;20172;47.530;10.256;2023-08-21T07:08:22;23.80;99.90
33881;DHT22;20172;47.530;10.256;2023-08-21T07:10:47;23.90;99.90
33881;DHT22;20172;47.530;10.256;2023-08-21T07:13:13;24.00;99.90
33881;DHT22;20172;47.530;10.256;2023-08-21T07:15:39;24.10;99.90
33881;DHT22;20172;47.530;10.256;2023-08-21T07:18:04;24.20;99.90
33881;DHT22;20172;47.530;10.256;2023-08-21T07:20:30;24.30;99.90
33881;DHT22;20172;47.530;10.256;2023-08-21T07:22:55;24.50;99.90
33881;DHT22;20172;47.530;10.256;2023-08-21T07:25:21;24.60;99.90
33881;DHT22;20172;47.530;10.256;2023-08-21T07:27:46;24.70;99.90
33881;DHT22;20172;47.530;10.256;2023-08-21T07:30:12;24.80;99.90
33881;DHT22;20172;47.530;10.256;2023-08-21T07:32:37;24.90;99.90
33881;DHT22;20172;47.530;10.256;2023-08-21T07:35:03;25.00;99.90
33881;DHT22;20172;47.530;10.256;2023-08-21T07:37:29;25.20;99.90
33881;DHT22;20172;47.530;10.256;2023-08-21T07:39:54;25.40;99.90
33881;DHT22;20172;47.530;10.256;2023-08-21T07:42:23;25.50;99.90
33881;DHT22;20172;47.530;10.256;2023-08-21T07:44:48;25.50;99.90
33881;DHT22;20172;47.530;10.256;2023-08-21T07:47:14;25.70;99.90
33881;DHT22;20172;47.530;10.256;2023-08-21T07:49:39;25.70;99.90
33881;DHT22;20172;47.530;10.256;2023-08-21T07:52:06;25.90;99.90
33881;DHT22;20172;47.530;10.256;2023-08-21T07:54:31;26.00;99.90
33881;DHT22;20172;47.530;10.256;2023-08-21T07:56:57;26.20;99.90
33881;DHT22;20172;47.530;10.256;2023-08-21T07:59:22;26.40;99.90
33881;DHT22;20172;47.530;10.256;2023-08-21T08:01:48;26.60;99.90
33881;DHT22;20172;47.530;10.256;2023-08-21T08:04:14;26.90;99.90
33881;DHT22;20172;47.530;10.256;2023-08-21T08:06:39;27.00;99.90
33881;DHT22;20172;47.530;10.256;2023-08-21T08:09:05;27.10;99.90
33881;DHT22;20172;47.530;10.256;2023-08-21T08:11:30;27.20;99.90
33881;DHT22;20172;47.530;10.256;2023-08-21T08:13:56;27.40;99.90
33881;DHT22;20172;47.530;10.256;2023-08-21T08:16:21;27.60;99.90
33881;DHT22;20172;47.530;10.256;2023-08-21T08:18:47;27.70;99.90
33881;DHT22;20172;47.530;10.256;2023-08-21T08:21:13;27.90;99.90
33881;DHT22;20172;47.530;10.256;2023-08-21T08:23:39;28.10;99.90
33881;DHT22;20172;47.530;10.256;2023-08-21T08:26:04;28.00;99.90
33881;DHT22;20172;47.530;10.256;2023-08-21T08:28:30;28.10;99.90
33881;DHT22;20172;47.530;10.256;2023-08-21T08:30:56;28.10;99.90
33881;DHT22;20172;47.530;10.256;2023-08-21T08:33:23;28.20;99.90
33881;DHT22;20172;47.530;10.256;2023-08-21T08:35:48;28.20;99.90
33881;DHT22;20172;47.530;10.256;2023-08-21T08:38:14;28.10;99.90
33881;DHT22;20172;47.530;10.256;2023-08-21T08:40:45;28.20;99.90
33881;DHT22;20172;47.530;10.256;2023-08-21T08:43:11;28.30;99.90
33881;DHT22;20172;47.530;10.256;2023-08-21T08:45:37;28.30;99.90
33881;DHT22;20172;47.530;10.256;2023-08-21T08:48:03;28.40;99.90
33881;DHT22;20172;47.530;10.256;2023-08-21T08:50:30;28.50;99.90
33881;DHT22;20172;47.530;10.256;2023-08-21T08:52:56;28.60;99.90
33881;DHT22;20172;47.530;10.256;2023-08-21T08:55:22;28.60;99.90
33881;DHT22;20172;47.530;10.256;2023-08-21T08:57:48;28.70;99.90
33881;DHT22;20172;47.530;10.256;2023-08-21T09:00:13;28.80;99.90
33881;DHT22;20172;47.530;10.256;2023-08-21T09:02:39;28.80;99.90
33881;DHT22;20172;47.530;10.256;2023-08-21T09:05:04;28.90;99.90
33881;DHT22;20172;47.530;10.256;2023-08-21T09:07:31;29.00;99.90
33881;DHT22;20172;47.530;10.256;2023-08-21T09:09:57;29.00;99.90
33881;DHT22;20172;47.530;10.256;2023-08-21T09:12:23;29.10;99.90
33881;DHT22;20172;47.530;10.256;2023-08-21T09:14:48;29.20;99.90
33881;DHT22;20172;47.530;10.256;2023-08-21T09:17:14;29.30;99.90
33881;DHT22;20172;47.530;10.256;2023-08-21T09:19:40;29.40;99.90
33881;DHT22;20172;47.530;10.256;2023-08-21T09:22:11;29.50;99.90
33881;DHT22;20172;47.530;10.256;2023-08-21T09:24:59;29.60;99.90
33881;DHT22;20172;47.530;10.256;2023-08-21T09:27:25;29.80;99.90
33881;DHT22;20172;47.530;10.256;2023-08-21T09:29:50;29.90;99.90
33881;DHT22;20172;47.530;10.256;2023-08-21T09:32:16;30.10;99.90
33881;DHT22;20172;47.530;10.256;2023-08-21T09:34:41;30.10;99.90
33881;DHT22;20172;47.530;10.256;2023-08-21T09:37:07;30.20;99.90
33881;DHT22;20172;47.530;10.256;2023-08-21T09:39:36;30.40;99.90
33881;DHT22;20172;47.530;10.256;2023-08-21T09:42:05;30.40;99.90
33881;DHT22;20172;47.530;10.256;2023-08-21T09:44:35;30.50;99.90
33881;DHT22;20172;47.530;10.256;2023-08-21T09:47:00;30.60;99.90
33881;DHT22;20172;47.530;10.256;2023-08-21T09:49:26;30.80;99.90
33881;DHT22;20172;47.530;10.256;2023-08-21T09:51:51;30.90;99.90
33881;DHT22;20172;47.530;10.256;2023-08-21T09:54:18;31.00;99.90
33881;DHT22;20172;47.530;10.256;2023-08-21T09:56:43;31.10;99.90
33881;DHT22;20172;47.530;10.256;2023-08-21T09:59:12;31.10;99.90
33881;DHT22;20172;47.530;10.256;2023-08-21T10:01:39;31.30;99.90
33881;DHT22;20172;47.530;10.256;2023-08-21T10:04:05;31.40;99.90
33881;DHT22;20172;47.530;10.256;2023-08-21T10:06:31;31.50;99.90
33881;DHT22;20172;47.530;10.256;2023-08-21T10:08:57;31.50;99.90
33881;DHT22;20172;47.530;10.256;2023-08-21T10:11:23;31.70;99.90
33881;DHT22;20172;47.530;10.256;2023-08-21T10:13:49;31.70;99.90
33881;DHT22;20172;47.530;10.256;2023-08-21T10:16:18;31.90;99.90
33881;DHT22;20172;47.530;10.256;2023-08-21T10:18:45;31.90;99.90
33881;DHT22;20172;47.530;10.256;2023-08-21T10:21:11;32.00;99.90
33881;DHT22;20172;47.530;10.256;2023-08-21T10:23:38;32.10;99.90
33881;DHT22;20172;47.530;10.256;2023-08-21T10:26:09;32.30;99.90
33881;DHT22;20172;47.530;10.256;2023-08-21T10:28:41;32.40;99.90
33881;DHT22;20172;47.530;10.256;2023-08-21T10:31:26;32.40;99.90
33881;DHT22;20172;47.530;10.256;2023-08-21T10:33:51;32.50;99.90
33881;DHT22;20172;47.530;10.256;2023-08-21T10:39:02;32.80;99.90
33881;DHT22;20172;47.530;10.256;2023-08-21T10:41:29;32.80;99.90
33881;DHT22;20172;47.530;10.256;2023-08-21T10:43:56;32.90;99.90
33881;DHT22;20172;47.530;10.256;2023-08-21T10:46:22;33.00;99.90
33881;DHT22;20172;47.530;10.256;2023-08-21T10:48:47;33.10;99.90
33881;DHT22;20172;47.530;10.256;2023-08-21T10:51:13;33.20;99.70
33881;DHT22;20172;47.530;10.256;2023-08-21T10:53:40;33.30;99.50
33881;DHT22;20172;47.530;10.256;2023-08-21T10:56:08;33.30;99.70
33881;DHT22;20172;47.530;10.256;2023-08-21T10:58:42;33.50;99.50
33881;DHT22;20172;47.530;10.256;2023-08-21T11:01:08;33.60;98.50
33881;DHT22;20172;47.530;10.256;2023-08-21T11:03:34;33.70;99.00
33881;DHT22;20172;47.530;10.256;2023-08-21T11:06:00;33.70;98.70
33881;DHT22;20172;47.530;10.256;2023-08-21T11:08:25;33.80;98.80
33881;DHT22;20172;47.530;10.256;2023-08-21T11:10:51;33.90;97.90
33881;DHT22;20172;47.530;10.256;2023-08-21T11:13:16;34.00;97.00
33881;DHT22;20172;47.530;10.256;2023-08-21T11:15:42;34.00;96.70
33881;DHT22;20172;47.530;10.256;2023-08-21T11:18:10;34.10;96.60
33881;DHT22;20172;47.530;10.256;2023-08-21T11:20:36;34.10;97.00
33881;DHT22;20172;47.530;10.256;2023-08-21T11:23:02;34.30;97.00
33881;DHT22;20172;47.530;10.256;2023-08-21T11:25:30;34.40;97.70
33881;DHT22;20172;47.530;10.256;2023-08-21T11:27:56;34.60;98.60
33881;DHT22;20172;47.530;10.256;2023-08-21T11:30:22;34.70;97.70
33881;DHT22;20172;47.530;10.256;2023-08-21T11:32:49;34.80;96.60
33881;DHT22;20172;47.530;10.256;2023-08-21T11:35:15;35.00;96.60
33881;DHT22;20172;47.530;10.256;2023-08-21T11:37:44;35.00;95.90
33881;DHT22;20172;47.530;10.256;2023-08-21T11:40:13;35.10;94.90
33881;DHT22;20172;47.530;10.256;2023-08-21T11:42:39;35.20;94.90
33881;DHT22;20172;47.530;10.256;2023-08-21T11:45:05;35.40;95.70
33881;DHT22;20172;47.530;10.256;2023-08-21T11:47:31;35.50;95.40
33881;DHT22;20172;47.530;10.256;2023-08-21T11:50:01;35.60;95.30
33881;DHT22;20172;47.530;10.256;2023-08-21T11:52:26;35.70;95.90
33881;DHT22;20172;47.530;10.256;2023-08-21T11:54:56;35.90;94.50
33881;DHT22;20172;47.530;10.256;2023-08-21T11:57:21;35.80;93.50
33881;DHT22;20172;47.530;10.256;2023-08-21T11:59:50;35.80;92.40
33881;DHT22;20172;47.530;10.256;2023-08-21T12:02:17;35.70;91.50
33881;DHT22;20172;47.530;10.256;2023-08-21T12:04:43;35.70;92.90
33881;DHT22;20172;47.530;10.256;2023-08-21T12:07:09;35.90;92.10
33881;DHT22;20172;47.530;10.256;2023-08-21T12:09:35;36.10;91.80
33881;DHT22;20172;47.530;10.256;2023-08-21T12:12:00;36.10;90.80
33881;DHT22;20172;47.530;10.256;2023-08-21T12:14:27;36.20;91.00
33881;DHT22;20172;47.530;10.256;2023-08-21T12:16:53;36.30;91.30
33881;DHT22;20172;47.530;10.256;2023-08-21T12:19:19;36.40;92.00
33881;DHT22;20172;47.530;10.256;2023-08-21T12:21:45;36.60;91.30
33881;DHT22;20172;47.530;10.256;2023-08-21T12:24:10;36.70;90.80
33881;DHT22;20172;47.530;10.256;2023-08-21T12:26:36;36.80;90.50
33881;DHT22;20172;47.530;10.256;2023-08-21T12:29:01;36.90;89.70
33881;DHT22;20172;47.530;10.256;2023-08-21T12:31:28;36.90;90.20
33881;DHT22;20172;47.530;10.256;2023-08-21T12:33:53;37.00;90.30
33881;DHT22;20172;47.530;10.256;2023-08-21T12:36:19;37.20;89.40
33881;DHT22;20172;47.530;10.256;2023-08-21T12:38:44;37.20;88.60
33881;DHT22;20172;47.530;10.256;2023-08-21T12:41:10;37.20;87.60
33881;DHT22;20172;47.530;10.256;2023-08-21T12:43:37;37.30;88.50
33881;DHT22;20172;47.530;10.256;2023-08-21T12:46:03;37.30;85.50
33881;DHT22;20172;47.530;10.256;2023-08-21T12:48:28;37.30;87.40
33881;DHT22;20172;47.530;10.256;2023-08-21T12:50:54;37.50;86.50
33881;DHT22;20172;47.530;10.256;2023-08-21T12:53:19;37.50;84.80
33881;DHT22;20172;47.530;10.256;2023-08-21T12:55:45;37.50;85.30
33881;DHT22;20172;47.530;10.256;2023-08-21T12:58:10;37.50;83.90
33881;DHT22;20172;47.530;10.256;2023-08-21T13:00:39;37.60;85.40
33881;DHT22;20172;47.530;10.256;2023-08-21T13:03:04;37.60;85.00
33881;DHT22;20172;47.530;10.256;2023-08-21T13:05:30;37.70;84.30
33881;DHT22;20172;47.530;10.256;2023-08-21T13:07:55;37.80;84.10
33881;DHT22;20172;47.530;10.256;2023-08-21T13:10:21;37.80;82.30
33881;DHT22;20172;47.530;10.256;2023-08-21T13:12:47;37.70;82.10
33881;DHT22;20172;47.530;10.256;2023-08-21T13:15:12;37.60;81.50
33881;DHT22;20172;47.530;10.256;2023-08-21T13:17:38;37.60;81.50
33881;DHT22;20172;47.530;10.256;2023-08-21T13:20:03;37.80;81.80
33881;DHT22;20172;47.530;10.256;2023-08-21T13:22:43;37.80;81.60
33881;DHT22;20172;47.530;10.256;2023-08-21T13:25:09;37.80;81.30
33881;DHT22;20172;47.530;10.256;2023-08-21T13:27:34;37.50;82.10
33881;DHT22;20172;47.530;10.256;2023-08-21T13:30:00;37.40;83.90
33881;DHT22;20172;47.530;10.256;2023-08-21T13:32:26;37.60;87.00
33881;DHT22;20172;47.530;10.256;2023-08-21T13:34:51;38.10;85.10
33881;DHT22;20172;47.530;10.256;2023-08-21T13:37:17;38.50;82.10
33881;DHT22;20172;47.530;10.256;2023-08-21T13:39:42;39.10;80.20
33881;DHT22;20172;47.530;10.256;2023-08-21T13:42:08;39.80;78.50
33881;DHT22;20172;47.530;10.256;2023-08-21T13:44:33;40.60;75.30
33881;DHT22;20172;47.530;10.256;2023-08-21T13:46:59;41.60;73.50
33881;DHT22;20172;47.530;10.256;2023-08-21T13:49:25;42.60;72.10
33881;DHT22;20172;47.530;10.256;2023-08-21T13:51:50;43.40;69.40
33881;DHT22;20172;47.530;10.256;2023-08-21T13:54:16;43.60;66.20
33881;DHT22;20172;47.530;10.256;2023-08-21T13:56:41;44.10;66.10
33881;DHT22;20172;47.530;10.256;2023-08-21T13:59:07;44.80;65.20
33881;DHT22;20172;47.530;10.256;2023-08-21T14:01:32;45.50;62.60
33881;DHT22;20172;47.530;10.256;2023-08-21T14:03:58;46.10;60.00
33881;DHT22;20172;47.530;10.256;2023-08-21T14:06:23;46.70;59.30
33881;DHT22;20172;47.530;10.256;2023-08-21T14:08:49;47.20;57.20
33881;DHT22;20172;47.530;10.256;2023-08-21T14:11:15;47.60;57.00
33881;DHT22;20172;47.530;10.256;2023-08-21T14:13:40;47.60;56.00
33881;DHT22;20172;47.530;10.256;2023-08-21T14:16:06;47.70;56.80
33881;DHT22;20172;47.530;10.256;2023-08-21T14:18:31;48.30;55.70
33881;DHT22;20172;47.530;10.256;2023-08-21T14:20:57;48.80;54.50
33881;DHT22;20172;47.530;10.256;2023-08-21T14:23:22;49.50;53.80
33881;DHT22;20172;47.530;10.256;2023-08-21T14:25:48;50.00;52.80
33881;DHT22;20172;47.530;10.256;2023-08-21T14:28:14;50.40;51.40
33881;DHT22;20172;47.530;10.256;2023-08-21T14:30:39;50.70;50.70
33881;DHT22;20172;47.530;10.256;2023-08-21T14:33:05;51.10;50.40
33881;DHT22;20172;47.530;10.256;2023-08-21T14:35:30;51.40;50.60
33881;DHT22;20172;47.530;10.256;2023-08-21T14:37:57;51.50;50.00
33881;DHT22;20172;47.530;10.256;2023-08-21T14:40:22;51.70;49.10
33881;DHT22;20172;47.530;10.256;2023-08-21T14:42:48;51.10;48.80
33881;DHT22;20172;47.530;10.256;2023-08-21T14:45:13;49.50;49.90
33881;DHT22;20172;47.530;10.256;2023-08-21T14:47:39;47.80;51.30
33881;DHT22;20172;47.530;10.256;2023-08-21T14:50:05;47.00;52.90
33881;DHT22;20172;47.530;10.256;2023-08-21T14:52:30;46.70;53.60
33881;DHT22;20172;47.530;10.256;2023-08-21T14:54:56;46.00;53.50
33881;DHT22;20172;47.530;10.256;2023-08-21T14:57:23;46.20;52.40
33881;DHT22;20172;47.530;10.256;2023-08-21T14:59:48;45.60;52.50
33881;DHT22;20172;47.530;10.256;2023-08-21T15:02:14;45.00;54.30
33881;DHT22;20172;47.530;10.256;2023-08-21T15:04:39;43.90;55.20
33881;DHT22;20172;47.530;10.256;2023-08-21T15:07:05;43.00;56.20
33881;DHT22;20172;47.530;10.256;2023-08-21T15:09:30;41.90;58.30
33881;DHT22;20172;47.530;10.256;2023-08-21T15:11:56;41.10;59.80
33881;DHT22;20172;47.530;10.256;2023-08-21T15:14:21;40.40;61.60